createdAt,value
2016-03-10T00:00:27.810Z,43.28
2016-03-10T00:01:27.814Z,43.16
2016-03-10T00:02:27.753Z,43.08
2016-03-10T00:03:27.756Z,42.97
2016-03-10T00:04:27.727Z,43.28
2016-03-10T00:05:27.714Z,43.26
2016-03-10T00:06:27.707Z,43.26
2016-03-10T00:07:27.679Z,43.08
2016-03-10T00:08:27.666Z,43.07
2016-03-10T00:09:27.637Z,43.18
2016-03-10T00:10:27.640Z,43.16
2016-03-10T00:11:27.595Z,43.08
2016-03-10T00:12:27.598Z,43.08
2016-03-10T00:13:27.569Z,43.16
2016-03-10T00:14:27.557Z,43.07
2016-03-10T00:15:27.544Z,43.07
2016-03-10T00:16:27.531Z,42.97
2016-03-10T00:17:27.502Z,43.35
2016-03-10T00:18:27.490Z,43.16
2016-03-10T00:19:27.461Z,43.07
2016-03-10T00:20:27.464Z,43.07
2016-03-10T00:21:27.435Z,42.97
2016-03-10T00:22:27.422Z,43.07
2016-03-10T00:23:27.409Z,43.07
2016-03-10T00:24:27.381Z,43.26
2016-03-10T00:25:27.368Z,43.07
2016-03-10T00:26:27.355Z,43.07
2016-03-10T00:27:27.185Z,43.45
2016-03-10T00:28:27.313Z,43.35
2016-03-10T00:29:27.285Z,43.16
2016-03-10T00:30:27.287Z,43.26
2016-03-10T00:31:27.275Z,43.07
2016-03-10T00:32:27.236Z,43.26
2016-03-10T00:33:27.228Z,42.97
2016-03-10T00:34:27.214Z,43.16
2016-03-10T00:35:27.201Z,42.77
2016-03-10T00:36:27.173Z,42.97
2016-03-10T00:37:27.161Z,42.49
2016-03-10T00:38:27.138Z,42.77
2016-03-10T00:39:27.109Z,42.77
2016-03-10T00:40:27.112Z,42.87
2016-03-10T00:41:27.083Z,42.77
2016-03-10T00:42:27.071Z,42.58
2016-03-10T00:43:27.042Z,42.39
2016-03-10T00:44:27.029Z,42.77
2016-03-10T00:45:27.063Z,42.68
2016-03-10T00:46:27.004Z,42.97
2016-03-10T00:47:26.990Z,42.49
2016-03-10T00:48:26.962Z,42.49
2016-03-10T00:49:26.964Z,42.58
2016-03-10T00:50:26.936Z,42.39
2016-03-10T00:51:26.908Z,42.49
2016-03-10T00:52:26.911Z,42.49
2016-03-10T00:53:26.882Z,42.58
2016-03-10T00:54:26.853Z,42.49
2016-03-10T00:55:26.855Z,42.3
2016-03-10T00:56:26.842Z,42.58
2016-03-10T00:57:26.845Z,42.49
2016-03-10T00:58:26.785Z,42.68
2016-03-10T00:59:26.773Z,42.77
2016-03-10T01:00:26.603Z,42.49
2016-03-10T01:01:26.731Z,42.77
2016-03-10T01:02:26.718Z,42.77
2016-03-10T01:03:26.721Z,42.68
2016-03-10T01:04:26.676Z,42.68
2016-03-10T01:05:26.711Z,42.58
2016-03-10T01:06:26.651Z,42.68
2016-03-10T01:07:26.622Z,42.49
2016-03-10T01:08:26.624Z,42.39
2016-03-10T01:09:26.612Z,42.49
2016-03-10T01:10:26.584Z,42.3
2016-03-10T01:11:26.555Z,42.87
2016-03-10T01:12:26.557Z,42.39
2016-03-10T01:13:26.529Z,42.58
2016-03-10T01:14:26.501Z,42.87
2016-03-10T01:15:26.503Z,43.07
2016-03-10T01:16:26.475Z,43.26
2016-03-10T01:17:26.445Z,43.16
2016-03-10T01:18:26.433Z,43.26
2016-03-10T01:19:26.420Z,42.87
2016-03-10T01:20:26.392Z,43.16
2016-03-10T01:21:26.378Z,43.45
2016-03-10T01:22:26.366Z,43.16
2016-03-10T01:23:26.352Z,43.16
2016-03-10T01:24:26.325Z,43.07
2016-03-10T01:25:26.327Z,43.07
2016-03-10T01:26:26.298Z,43.26
2016-03-10T01:27:26.286Z,43.16
2016-03-10T01:28:26.258Z,43.35
2016-03-10T01:29:26.244Z,43.45
2016-03-10T01:30:26.216Z,42.97
2016-03-10T01:31:26.218Z,43.16
2016-03-10T01:32:26.189Z,43.26
2016-03-10T01:33:26.161Z,43.26
2016-03-10T01:34:26.164Z,42.97
2016-03-10T01:35:26.135Z,43.26
2016-03-10T01:36:26.137Z,43.26
2016-03-10T01:37:26.093Z,43.35
2016-03-10T01:38:26.080Z,43.26
2016-03-10T01:39:26.052Z,43.26
2016-03-10T01:40:26.054Z,43.07
2016-03-10T01:41:26.058Z,43.45
2016-03-10T01:42:25.857Z,43.35
2016-03-10T01:43:26.001Z,43.64
2016-03-10T01:44:25.987Z,43.35
2016-03-10T01:45:25.959Z,43.35
2016-03-10T01:46:25.976Z,43.26
2016-03-10T01:47:25.918Z,43.07
2016-03-10T01:48:25.920Z,43.07
2016-03-10T01:49:25.892Z,43.26
2016-03-10T01:50:25.878Z,43.26
2016-03-10T01:51:25.865Z,43.26
2016-03-10T01:52:25.837Z,43.35
2016-03-10T01:53:25.809Z,43.26
2016-03-10T01:54:25.795Z,43.45
2016-03-10T01:55:25.783Z,43.35
2016-03-10T01:56:25.786Z,43.16
2016-03-10T01:57:25.741Z,43.35
2016-03-10T01:58:25.728Z,43.26
2016-03-10T01:59:25.730Z,43.26
2016-03-10T02:00:25.686Z,43.35
2016-03-10T02:01:25.689Z,43.07
2016-03-10T02:02:25.660Z,43.26
2016-03-10T02:03:25.632Z,43.35
2016-03-10T02:04:25.635Z,43.16
2016-03-10T02:05:25.606Z,43.16
2016-03-10T02:06:25.594Z,43.16
2016-03-10T02:07:25.565Z,43.35
2016-03-10T02:08:25.552Z,43.16
2016-03-10T02:09:25.539Z,43.35
2016-03-10T02:10:25.511Z,43.26
2016-03-10T02:11:25.544Z,43.07
2016-03-10T02:12:25.485Z,43.07
2016-03-10T02:13:25.471Z,42.97
2016-03-10T02:14:25.443Z,43.26
2016-03-10T02:15:25.430Z,43.26
2016-03-10T02:16:25.417Z,42.97
2016-03-10T02:17:25.389Z,43.26
2016-03-10T02:18:25.391Z,43.07
2016-03-10T02:19:25.362Z,43.26
2016-03-10T02:20:25.350Z,43.26
2016-03-10T02:21:25.321Z,43.35
2016-03-10T02:22:25.308Z,43.26
2016-03-10T02:23:25.296Z,43.35
2016-03-10T02:24:25.283Z,43.16
2016-03-10T02:25:25.270Z,42.97
2016-03-10T02:26:25.241Z,42.97
2016-03-10T02:27:25.228Z,43.54
2016-03-10T02:28:25.199Z,43.26
2016-03-10T02:29:25.187Z,43.16
2016-03-10T02:30:25.158Z,43.35
2016-03-10T02:31:25.145Z,43.26
2016-03-10T02:32:25.147Z,43.26
2016-03-10T02:33:25.103Z,43.16
2016-03-10T02:34:25.106Z,43.07
2016-03-10T02:35:25.077Z,43.07
2016-03-10T02:36:25.049Z,42.97
2016-03-10T02:37:25.052Z,42.97
2016-03-10T02:38:25.024Z,43.16
2016-03-10T02:39:25.010Z,43.16
2016-03-10T02:40:24.982Z,43.16
2016-03-10T02:41:24.968Z,42.97
2016-03-10T02:42:24.956Z,43.26
2016-03-10T02:43:24.943Z,43.07
2016-03-10T02:44:24.930Z,43.35
2016-03-10T02:45:24.901Z,43.26
2016-03-10T02:46:24.888Z,43.35
2016-03-10T02:47:24.859Z,43.16
2016-03-10T02:48:24.848Z,43.16
2016-03-10T02:49:24.834Z,43.16
2016-03-10T02:50:24.806Z,43.26
2016-03-10T02:51:24.792Z,42.97
2016-03-10T02:52:24.780Z,42.97
2016-03-10T02:53:24.751Z,43.16
2016-03-10T02:54:24.754Z,43.45
2016-03-10T02:55:24.725Z,43.07
2016-03-10T02:56:24.712Z,43.45
2016-03-10T02:57:24.684Z,43.16
2016-03-10T02:58:24.671Z,43.35
2016-03-10T02:59:24.658Z,43.16
2016-03-10T03:00:24.629Z,42.97
2016-03-10T03:01:24.632Z,43.26
2016-03-10T03:02:24.603Z,42.97
2016-03-10T03:03:24.591Z,43.45
2016-03-10T03:04:24.561Z,43.16
2016-03-10T03:05:24.549Z,43.16
2016-03-10T03:06:24.536Z,42.97
2016-03-10T03:07:24.508Z,43.16
2016-03-10T03:08:24.494Z,42.39
2016-03-10T03:09:24.325Z,42.49
2016-03-10T03:10:24.468Z,42.3
2016-03-10T03:11:24.440Z,42.39
2016-03-10T03:12:24.427Z,42.68
2016-03-10T03:13:24.415Z,42.49
2016-03-10T03:14:24.385Z,42.2
2016-03-10T03:15:24.404Z,42.58
2016-03-10T03:16:24.344Z,42.49
2016-03-10T03:17:24.347Z,42.77
2016-03-10T03:18:24.318Z,42.77
2016-03-10T03:19:24.306Z,42.68
2016-03-10T03:20:24.293Z,42.87
2016-03-10T03:21:24.265Z,42.87
2016-03-10T03:22:24.267Z,42.97
2016-03-10T03:23:24.238Z,43.16
2016-03-10T03:24:24.209Z,42.39
2016-03-10T03:25:24.197Z,42.68
2016-03-10T03:26:24.200Z,42.97
2016-03-10T03:27:24.171Z,42.68
2016-03-10T03:28:24.142Z,42.87
2016-03-10T03:29:24.128Z,42.68
2016-03-10T03:30:24.116Z,42.49
2016-03-10T03:31:24.088Z,42.68
2016-03-10T03:32:24.075Z,42.58
2016-03-10T03:33:24.061Z,42.49
2016-03-10T03:34:24.033Z,42.49
2016-03-10T03:35:24.036Z,42.49
2016-03-10T03:36:23.992Z,42.68
2016-03-10T03:37:23.994Z,42.68
2016-03-10T03:38:23.965Z,42.49
2016-03-10T03:39:23.952Z,42.58
2016-03-10T03:40:23.924Z,42.49
2016-03-10T03:41:23.911Z,42.49
2016-03-10T03:42:23.898Z,42.77
2016-03-10T03:43:23.870Z,42.58
2016-03-10T03:44:23.856Z,42.49
2016-03-10T03:45:23.828Z,42.58
2016-03-10T03:46:23.815Z,42.58
2016-03-10T03:47:23.787Z,42.58
2016-03-10T03:48:23.773Z,42.39
2016-03-10T03:49:23.777Z,42.2
2016-03-10T03:50:23.748Z,42.68
2016-03-10T03:51:23.735Z,42.2
2016-03-10T03:52:23.706Z,42.87
2016-03-10T03:53:23.693Z,42.77
2016-03-10T03:54:23.681Z,42.58
2016-03-10T03:55:23.653Z,42.49
2016-03-10T03:56:23.670Z,42
2016-03-10T03:57:23.611Z,42.58
2016-03-10T03:58:23.597Z,42.39
2016-03-10T03:59:23.584Z,42.39
2016-03-10T04:00:23.556Z,42.97
2016-03-10T04:01:23.559Z,43.07
2016-03-10T04:02:23.546Z,42.97
2016-03-10T04:03:23.517Z,43.07
2016-03-10T04:04:23.505Z,43.16
2016-03-10T04:05:23.476Z,43.45
2016-03-10T04:06:23.463Z,43.07
2016-03-10T04:07:23.435Z,43.16
2016-03-10T04:08:23.437Z,43.26
2016-03-10T04:09:23.408Z,43.16
2016-03-10T04:10:23.380Z,43.07
2016-03-10T04:11:23.382Z,42.87
2016-03-10T04:12:23.354Z,43.07
2016-03-10T04:13:23.340Z,42.97
2016-03-10T04:14:23.313Z,43.07
2016-03-10T04:15:23.299Z,42.87
2016-03-10T04:16:23.302Z,43.16
2016-03-10T04:17:23.257Z,43.16
2016-03-10T04:18:23.246Z,43.07
2016-03-10T04:19:23.232Z,42.77
2016-03-10T04:20:23.204Z,42.87
2016-03-10T04:21:23.207Z,42.49
2016-03-10T04:22:23.179Z,42.87
2016-03-10T04:23:23.165Z,43.16
2016-03-10T04:24:23.137Z,42.97
2016-03-10T04:25:23.124Z,42.87
2016-03-10T04:26:23.126Z,42.87
2016-03-10T04:27:23.081Z,43.07
2016-03-10T04:28:23.053Z,42.87
2016-03-10T04:29:23.056Z,43.26
2016-03-10T04:30:23.028Z,42.68
2016-03-10T04:31:23.014Z,43.07
2016-03-10T04:32:22.986Z,43.07
2016-03-10T04:33:22.989Z,43.07
2016-03-10T04:34:22.961Z,43.43
2016-03-10T04:35:22.947Z,43.35
2016-03-10T04:36:22.918Z,42.97
2016-03-10T04:37:22.905Z,43.16
2016-03-10T04:38:22.877Z,43.14
2016-03-10T04:39:22.864Z,42.97
2016-03-10T04:40:22.851Z,43.16
2016-03-10T04:41:22.838Z,43.16
2016-03-10T04:42:22.824Z,42.77
2016-03-10T04:43:22.796Z,43.04
2016-03-10T04:44:22.784Z,42.85
2016-03-10T04:45:22.771Z,42.87
2016-03-10T04:46:22.742Z,42.97
2016-03-10T04:47:22.729Z,42.94
2016-03-10T04:48:22.716Z,42.87
2016-03-10T04:49:22.688Z,42.49
2016-03-10T04:50:22.659Z,42.3
2016-03-10T04:51:22.646Z,42.68
2016-03-10T04:52:22.633Z,42.66
2016-03-10T04:53:22.605Z,42.39
2016-03-10T04:54:22.607Z,42.87
2016-03-10T04:55:22.579Z,42.77
2016-03-10T04:56:22.566Z,42.49
2016-03-10T04:57:22.553Z,42.27
2016-03-10T04:58:22.524Z,42.37
2016-03-10T04:59:22.512Z,42.58
2016-03-10T05:00:22.483Z,42.58
2016-03-10T05:01:22.470Z,42.49
2016-03-10T05:02:22.457Z,42.3
2016-03-10T05:03:22.428Z,42.47
2016-03-10T05:04:22.416Z,42.77
2016-03-10T05:05:22.402Z,42.49
2016-03-10T05:06:22.374Z,42.49
2016-03-10T05:07:22.361Z,42.49
2016-03-10T05:08:22.333Z,42.58
2016-03-10T05:09:22.335Z,42.58
2016-03-10T05:10:22.307Z,42.39
2016-03-10T05:11:22.294Z,42.49
2016-03-10T05:12:22.281Z,42.58
2016-03-10T05:13:22.253Z,42.49
2016-03-10T05:14:22.240Z,42.47
2016-03-10T05:15:22.211Z,42.49
2016-03-10T05:16:22.198Z,42.37
2016-03-10T05:17:22.201Z,42.39
2016-03-10T05:18:22.157Z,42.49
2016-03-10T05:19:22.143Z,42.68
2016-03-10T05:20:22.115Z,42.49
2016-03-10T05:21:22.102Z,42.47
2016-03-10T05:22:22.104Z,42.68
2016-03-10T05:23:22.060Z,42.58
2016-03-10T05:24:22.048Z,42.56
2016-03-10T05:25:22.034Z,42.49
2016-03-10T05:26:22.022Z,42.56
2016-03-10T05:27:22.009Z,42.56
2016-03-10T05:28:21.981Z,42.56
2016-03-10T05:29:21.967Z,42.58
2016-03-10T05:30:21.939Z,42.58
2016-03-10T05:31:21.926Z,42.56
2016-03-10T05:32:21.913Z,42.47
2016-03-10T05:33:21.884Z,42.49
2016-03-10T05:34:21.886Z,42.58
2016-03-10T05:35:21.858Z,42.58
2016-03-10T05:36:21.861Z,41.99
2016-03-10T05:37:21.816Z,42.27
2016-03-10T05:38:21.804Z,42.08
2016-03-10T05:39:21.791Z,42.56
2016-03-10T05:40:21.762Z,42.1
2016-03-10T05:41:21.749Z,42.58
2016-03-10T05:42:21.736Z,42.58
2016-03-10T05:43:21.724Z,42.47
2016-03-10T05:44:21.696Z,42.58
2016-03-10T05:45:21.682Z,42.66
2016-03-10T05:46:21.654Z,42.47
2016-03-10T05:47:21.657Z,42.49
2016-03-10T05:48:21.628Z,42.47
2016-03-10T05:49:21.615Z,42.56
2016-03-10T05:50:21.587Z,42.47
2016-03-10T05:51:21.574Z,42.58
2016-03-10T05:52:21.560Z,42.56
2016-03-10T05:53:21.548Z,42.58
2016-03-10T05:54:21.518Z,42.47
2016-03-10T05:55:21.490Z,42.58
2016-03-10T05:56:21.478Z,42.47
2016-03-10T05:57:21.495Z,42.37
2016-03-10T05:58:21.451Z,42.39
2016-03-10T05:59:21.423Z,42.56
2016-03-10T06:00:21.409Z,42.18
2016-03-10T06:01:21.397Z,42.1
2016-03-10T06:02:21.368Z,42
2016-03-10T06:03:21.355Z,42.58
2016-03-10T06:04:21.342Z,42.49
2016-03-10T06:05:21.330Z,42.49
2016-03-10T06:06:21.315Z,42.56
2016-03-10T06:07:21.286Z,42.2
2016-03-10T06:08:21.273Z,42.56
2016-03-10T06:09:21.261Z,42.37
2016-03-10T06:10:21.232Z,42.58
2016-03-10T06:11:21.219Z,42.37
2016-03-10T06:12:21.189Z,42.56
2016-03-10T06:13:21.224Z,42.56
2016-03-10T06:14:21.164Z,42.49
2016-03-10T06:15:21.136Z,42.47
2016-03-10T06:16:21.122Z,42.39
2016-03-10T06:17:21.110Z,42.39
2016-03-10T06:18:21.081Z,42.47
2016-03-10T06:19:21.069Z,42.56
2016-03-10T06:20:21.055Z,42.47
2016-03-10T06:21:21.027Z,42.47
2016-03-10T06:22:21.013Z,42.58
2016-03-10T06:23:21.001Z,42.39
2016-03-10T06:24:20.972Z,42.58
2016-03-10T06:25:20.960Z,42.27
2016-03-10T06:26:20.946Z,42.49
2016-03-10T06:27:20.918Z,42.58
2016-03-10T06:28:20.904Z,42.56
2016-03-10T06:29:20.892Z,42.47
2016-03-10T06:30:20.863Z,42.1
2016-03-10T06:31:20.866Z,42.37
2016-03-10T06:32:20.837Z,42.39
2016-03-10T06:33:20.810Z,42.39
2016-03-10T06:34:20.812Z,42.39
2016-03-10T06:35:20.768Z,42.37
2016-03-10T06:36:20.770Z,42.3
2016-03-10T06:37:20.742Z,42.3
2016-03-10T06:38:20.728Z,42.3
2016-03-10T06:39:20.717Z,42.2
2016-03-10T06:40:20.687Z,42.18
2016-03-10T06:41:20.675Z,42.2
2016-03-10T06:42:20.645Z,42.37
2016-03-10T06:43:20.664Z,42.49
2016-03-10T06:44:20.620Z,42.2
2016-03-10T06:45:20.608Z,42.08
2016-03-10T06:46:20.578Z,42.1
2016-03-10T06:47:20.566Z,42.2
2016-03-10T06:48:20.569Z,42.18
2016-03-10T06:49:20.556Z,42.1
2016-03-10T06:50:20.511Z,42.56
2016-03-10T06:51:20.498Z,42.18
2016-03-10T06:52:20.423Z,42.58
2016-03-10T06:53:20.457Z,42.3
2016-03-10T06:54:20.428Z,42.58
2016-03-10T06:55:20.430Z,42.1
2016-03-10T06:56:20.402Z,42.1
2016-03-10T06:57:20.373Z,42.18
2016-03-10T06:58:20.377Z,41.99
2016-03-10T06:59:20.348Z,42.1
2016-03-10T07:00:20.319Z,42.2
2016-03-10T07:01:20.307Z,42.39
2016-03-10T07:02:20.294Z,42.2
2016-03-10T07:03:20.281Z,42.3
2016-03-10T07:04:20.252Z,42.1
2016-03-10T07:05:20.239Z,41.99
2016-03-10T07:06:20.210Z,42.3
2016-03-10T07:07:20.198Z,42.58
2016-03-10T07:08:20.185Z,42.49
2016-03-10T07:09:20.172Z,42.49
2016-03-10T07:10:20.142Z,42.49
2016-03-10T07:11:20.130Z,42.68
2016-03-10T07:12:20.101Z,42.58
2016-03-10T07:13:20.104Z,42.49
2016-03-10T07:14:20.075Z,42.49
2016-03-10T07:15:20.064Z,42.49
2016-03-10T07:16:20.034Z,42.58
2016-03-10T07:17:20.022Z,42.68
2016-03-10T07:18:20.008Z,42.56
2016-03-10T07:19:19.980Z,42.49
2016-03-10T07:20:19.966Z,42.3
2016-03-10T07:21:19.939Z,42.49
2016-03-10T07:22:19.941Z,42.49
2016-03-10T07:23:19.913Z,42.58
2016-03-10T07:24:19.899Z,42.49
2016-03-10T07:25:19.871Z,42.58
2016-03-10T07:26:19.858Z,42.39
2016-03-10T07:27:19.829Z,42.68
2016-03-10T07:28:19.816Z,42.58
2016-03-10T07:29:19.804Z,42.68
2016-03-10T07:30:19.775Z,42.58
2016-03-10T07:31:19.777Z,42.58
2016-03-10T07:32:19.749Z,42.47
2016-03-10T07:33:19.720Z,42.49
2016-03-10T07:34:19.724Z,42.49
2016-03-10T07:35:19.695Z,42.47
2016-03-10T07:36:19.682Z,42.76
2016-03-10T07:37:19.653Z,42.68
2016-03-10T07:38:19.484Z,42.68
2016-03-10T07:39:19.628Z,42.68
2016-03-10T07:40:19.598Z,42.2
2016-03-10T07:41:19.586Z,42.2
2016-03-10T07:42:19.589Z,42.49
2016-03-10T07:43:19.560Z,42.68
2016-03-10T07:44:19.547Z,42.39
2016-03-10T07:45:19.503Z,42.49
2016-03-10T07:46:19.490Z,42.37
2016-03-10T07:47:19.503Z,43.07
2016-03-10T07:48:19.435Z,42.97
2016-03-10T07:49:19.417Z,42.97
2016-03-10T07:50:19.397Z,42.87
2016-03-10T07:51:19.363Z,42.68
2016-03-10T07:52:19.378Z,43.07
2016-03-10T07:53:19.332Z,42.97
2016-03-10T07:54:19.300Z,43.26
2016-03-10T07:55:19.285Z,43.04
2016-03-10T07:56:19.270Z,43.07
2016-03-10T07:57:19.256Z,42.97
2016-03-10T07:58:19.227Z,43.07
2016-03-10T07:59:19.213Z,42.97
2016-03-10T08:00:19.199Z,42.87
2016-03-10T08:01:19.170Z,42.97
2016-03-10T08:02:19.172Z,42.87
2016-03-10T08:03:19.144Z,43.04
2016-03-10T08:04:19.130Z,43.45
2016-03-10T08:05:19.101Z,43.14
2016-03-10T08:06:19.104Z,42.94
2016-03-10T08:07:19.090Z,42.97
2016-03-10T08:08:19.045Z,42.97
2016-03-10T08:09:19.048Z,43.07
2016-03-10T08:10:19.004Z,43.04
2016-03-10T08:11:18.992Z,42.87
2016-03-10T08:12:18.978Z,42.97
2016-03-10T08:13:18.950Z,43.14
2016-03-10T08:14:18.936Z,43.14
2016-03-10T08:15:18.925Z,43.26
2016-03-10T08:16:18.911Z,43.35
2016-03-10T08:17:18.883Z,43.26
2016-03-10T08:18:18.870Z,43.26
2016-03-10T08:19:18.841Z,43.14
2016-03-10T08:20:18.828Z,43.07
2016-03-10T08:21:18.096Z,43.04
2016-03-10T08:22:18.865Z,43.07
2016-03-10T08:23:18.836Z,43.26
2016-03-10T08:24:18.058Z,43.16
2016-03-10T08:25:18.810Z,43.16
2016-03-10T08:26:18.813Z,43.16
2016-03-10T08:27:18.707Z,43.16
2016-03-10T08:28:18.693Z,43.35
2016-03-10T08:29:18.665Z,43.64
2016-03-10T08:30:18.668Z,43.62
2016-03-10T08:31:18.624Z,43.45
2016-03-10T08:32:18.641Z,43.64
2016-03-10T08:33:18.582Z,43.26
2016-03-10T08:34:18.585Z,43.16
2016-03-10T08:35:18.556Z,43.26
2016-03-10T08:36:18.527Z,42.97
2016-03-10T08:37:18.514Z,43.84
2016-03-10T08:38:18.502Z,43.54
2016-03-10T08:39:18.473Z,43.84
2016-03-10T08:40:18.460Z,43.45
2016-03-10T08:41:21.151Z,45.66
2016-03-10T08:42:20.872Z,47.77
2016-03-10T08:43:20.812Z,47.68
2016-03-10T08:44:18.393Z,48.16
2016-03-10T08:45:18.396Z,45.28
2016-03-10T08:46:21.117Z,44.7
2016-03-10T08:47:20.947Z,43.91
2016-03-10T08:48:21.013Z,43.43
2016-03-10T08:49:20.969Z,44.08
2016-03-10T08:50:20.924Z,42.83
2016-03-10T08:51:20.489Z,41.67
2016-03-10T08:52:20.977Z,41.58
2016-03-10T08:53:20.855Z,41
2016-03-10T08:54:20.905Z,41.49
2016-03-10T08:55:21.094Z,41.96
2016-03-10T08:56:20.816Z,41.49
2016-03-10T08:57:20.725Z,41.46
2016-03-10T08:58:20.555Z,40.79
2016-03-10T08:59:20.838Z,40.12
2016-03-10T09:00:21.091Z,40.89
2016-03-10T09:01:20.204Z,40.31
2016-03-10T09:02:20.644Z,40.5
2016-03-10T16:26:06.606Z,0
2016-03-10T16:27:06.562Z,1.47
2016-03-10T16:28:06.549Z,4.3
2016-03-10T16:29:06.536Z,6.32
2016-03-10T16:30:06.492Z,8.53
2016-03-10T16:31:06.463Z,11.11
2016-03-10T16:32:06.481Z,14.18
2016-03-10T16:33:06.438Z,16.17
2016-03-10T16:34:06.409Z,18.93
2016-03-10T16:35:06.381Z,21.48
2016-03-10T16:36:06.368Z,24.04
2016-03-10T16:37:06.323Z,25.73
2016-03-10T16:38:06.311Z,27.25
2016-03-10T16:39:06.282Z,28.47
2016-03-10T16:40:06.253Z,29.89
2016-03-10T16:41:06.240Z,31.69
2016-03-10T16:42:06.197Z,33.85
2016-03-10T16:43:06.183Z,34.88
2016-03-10T16:44:06.155Z,35.27
2016-03-10T16:45:06.126Z,36.58
2016-03-10T16:46:06.097Z,38.18
2016-03-10T16:47:06.069Z,39.14
2016-03-10T16:48:06.056Z,39.87
2016-03-10T16:49:06.012Z,41.3
2016-03-10T16:50:05.999Z,42.14
2016-03-10T16:51:05.971Z,42.8
2016-03-10T16:52:05.927Z,43.47
2016-03-10T16:53:05.922Z,44.31
2016-03-10T16:54:05.862Z,44.78
2016-03-10T16:55:05.818Z,44.97
2016-03-10T16:56:05.773Z,45.35
2016-03-10T16:57:05.729Z,47.13
2016-03-10T16:58:05.690Z,47.42
2016-03-10T16:59:05.656Z,47.42
2016-03-10T17:00:05.622Z,47.23
2016-03-10T17:01:05.588Z,47.61
2016-03-10T17:02:05.553Z,47.99
2016-03-10T17:03:05.522Z,48.54
2016-03-10T17:04:05.490Z,48.63
2016-03-10T17:05:05.460Z,48.82
2016-03-10T17:06:05.430Z,48.82
2016-03-10T17:07:05.399Z,49.77
2016-03-10T17:08:05.385Z,49.96
2016-03-10T17:09:05.340Z,50.62
2016-03-10T17:10:05.310Z,50.72
2016-03-10T17:11:05.266Z,50.72
2016-03-10T17:12:05.252Z,50.62
2016-03-10T17:13:05.222Z,51.45
2016-03-10T17:14:05.178Z,51.39
2016-03-10T17:15:05.149Z,51.36
2016-03-10T17:16:05.121Z,51.55
2016-03-10T17:17:05.092Z,51.93
2016-03-10T17:18:05.062Z,52.12
2016-03-10T17:19:05.034Z,52.02
2016-03-10T17:20:05.021Z,52.02
2016-03-10T17:21:04.977Z,52.22
2016-03-10T17:22:04.948Z,52.78
2016-03-10T17:23:04.920Z,53.16
2016-03-10T17:24:04.892Z,53.16
2016-03-10T17:25:04.863Z,52.87
2016-03-10T17:26:04.834Z,53.83
2016-03-10T17:27:04.806Z,54.58
2016-03-10T17:28:04.761Z,55.06
2016-03-10T17:29:04.749Z,56.68
2016-03-10T17:30:04.704Z,55.63
2016-03-10T17:31:04.676Z,55.35
2016-03-10T17:32:04.663Z,54.58
2016-03-10T17:33:04.619Z,53.73
2016-03-10T17:34:04.590Z,54.11
2016-03-10T17:35:04.561Z,53.83
2016-03-10T17:36:04.533Z,53.73
2016-03-10T17:37:04.504Z,53.83
2016-03-10T17:38:04.476Z,54.21
2016-03-10T17:39:04.463Z,54.49
2016-03-10T17:40:04.418Z,54.21
2016-03-10T17:41:04.391Z,54.68
2016-03-10T17:42:04.346Z,55.06
2016-03-10T17:43:04.317Z,54.87
2016-03-10T17:44:04.305Z,55.63
2016-03-10T17:45:04.260Z,55.44
2016-03-10T17:46:04.231Z,55.73
2016-03-10T17:47:04.204Z,55.82
2016-03-10T17:48:04.175Z,57.62
2016-03-10T17:49:04.162Z,57.31
2016-03-10T17:50:04.118Z,57.43
2016-03-10T17:51:04.104Z,57.88
2016-03-10T17:52:04.061Z,58.26
2016-03-10T17:53:04.016Z,59.02
2016-03-10T17:54:04.003Z,58.83
2016-03-10T17:55:03.959Z,59.59
2016-03-10T17:56:03.930Z,59.88
2016-03-10T17:57:03.903Z,59.68
2016-03-10T17:58:03.873Z,60.44
2016-03-10T17:59:03.844Z,60.53
2016-03-10T18:00:03.817Z,61.01
2016-03-10T18:01:03.788Z,61.11
2016-03-10T18:02:03.758Z,61.49
2016-03-10T18:03:03.716Z,61.96
2016-03-10T18:04:03.686Z,62.05
2016-03-10T18:05:03.658Z,62.62
2016-03-10T18:06:03.630Z,62.62
2016-03-10T18:07:03.601Z,63.1
2016-03-10T18:08:03.572Z,63.67
2016-03-10T18:09:03.544Z,63.76
2016-03-10T18:10:03.515Z,63.48
2016-03-10T18:11:03.486Z,64.05
2016-03-10T18:12:03.458Z,63.95
2016-03-10T18:13:03.429Z,64.81
2016-03-10T18:14:03.385Z,64.62
2016-03-10T18:15:03.357Z,65.28
2016-03-10T18:16:03.328Z,65.28
2016-03-10T18:17:03.299Z,65.28
2016-03-10T18:18:03.271Z,65.47
2016-03-10T18:19:03.226Z,65.85
2016-03-10T18:20:03.198Z,65.95
2016-03-10T18:21:03.185Z,66.52
2016-03-10T18:22:03.142Z,66.42
2016-03-10T18:23:03.112Z,66.71
2016-03-10T18:24:03.085Z,66.58
2016-03-10T18:25:03.057Z,67.33
2016-03-10T18:26:03.028Z,67.46
2016-03-10T18:27:02.983Z,67.52
2016-03-10T18:28:02.955Z,68
2016-03-10T18:29:02.942Z,67.52
2016-03-10T18:30:02.898Z,67.9
2016-03-10T18:31:02.870Z,68.1
2016-03-10T18:32:02.840Z,68.38
2016-03-10T18:33:02.828Z,69.42
2016-03-10T18:34:02.768Z,69.23
2016-03-10T18:35:02.755Z,69.61
2016-03-10T18:36:02.726Z,70.09
2016-03-10T18:37:02.698Z,70.65
2016-03-10T18:38:02.653Z,70.75
2016-03-10T18:39:02.625Z,70.94
2016-03-10T18:40:02.597Z,71.03
2016-03-10T18:41:02.552Z,70.94
2016-03-10T18:42:02.540Z,71.22
2016-03-10T18:43:02.495Z,71.51
2016-03-10T18:44:02.466Z,71.98
2016-03-10T18:45:02.438Z,71.6
2016-03-10T18:46:02.410Z,71.89
2016-03-10T18:47:02.381Z,72.27
2016-03-10T18:48:02.337Z,72.08
2016-03-10T18:49:02.324Z,72.55
2016-03-10T18:50:02.280Z,72.84
2016-03-10T18:51:02.251Z,73.12
2016-03-10T18:52:02.223Z,73.22
2016-03-10T18:53:02.179Z,73.22
2016-03-10T18:54:02.165Z,72.84
2016-03-10T18:55:02.122Z,73.41
2016-03-10T18:56:02.093Z,73.6
2016-03-10T18:57:02.064Z,73.41
2016-03-10T18:58:02.036Z,73.6
2016-03-10T18:59:02.007Z,73.88
2016-03-10T19:00:01.978Z,74.07
2016-03-10T19:01:01.935Z,73.97
2016-03-10T19:02:01.921Z,73.6
2016-03-10T19:03:01.878Z,74.16
2016-03-10T19:04:01.833Z,73.88
2016-03-10T19:05:01.820Z,74.41
2016-03-10T19:06:01.791Z,73.94
2016-03-10T19:07:01.764Z,74.6
2016-03-10T19:08:01.719Z,74.69
2016-03-10T19:09:01.689Z,74.6
2016-03-10T19:10:01.662Z,74.41
2016-03-10T19:11:01.633Z,74.69
2016-03-10T19:12:01.589Z,75.07
2016-03-10T19:13:01.576Z,75.36
2016-03-10T19:14:01.532Z,74.79
2016-03-10T19:15:01.503Z,75.55
2016-03-10T19:16:01.475Z,75.93
2016-03-10T19:17:01.793Z,75.45
2016-03-10T19:18:01.418Z,75.45
2016-03-10T19:19:01.375Z,76.21
2016-03-10T19:20:01.377Z,76.4
2016-03-10T19:21:01.491Z,76.78
2016-03-10T19:22:01.394Z,76.97
2016-03-10T19:23:01.273Z,76.87
2016-03-10T19:24:01.213Z,76.4
2016-03-10T19:25:01.185Z,76.87
2016-03-10T19:26:01.141Z,76.87
2016-03-10T19:27:01.128Z,76.78
2016-03-10T19:28:01.114Z,76.5
2016-03-10T19:29:01.054Z,76.78
2016-03-10T19:30:01.027Z,76.4
2016-03-10T19:31:00.997Z,77.25
2016-03-10T19:32:00.954Z,77.35
2016-03-10T19:33:00.957Z,77.64
2016-03-10T19:34:00.896Z,77.64
2016-03-10T19:35:00.868Z,78.02
2016-03-10T19:36:00.824Z,77.97
2016-03-10T19:37:00.811Z,78.02
2016-03-10T19:38:00.756Z,77.73
2016-03-10T19:39:00.726Z,78.11
2016-03-10T19:40:00.699Z,78.64
2016-03-10T19:41:00.670Z,78.77
2016-03-10T19:42:00.642Z,79.34
2016-03-10T19:43:00.597Z,79.25
2016-03-10T19:44:00.584Z,79.39
2016-03-10T19:45:00.539Z,79.39
2016-03-10T19:46:00.511Z,79.21
2016-03-10T19:47:00.467Z,79.34
2016-03-10T19:48:00.455Z,79.68
2016-03-10T19:49:00.425Z,80.25
2016-03-10T19:50:00.381Z,80.15
2016-03-10T19:51:00.353Z,80.29
2016-03-10T19:52:00.325Z,79.63
2016-03-10T19:53:00.296Z,80.57
2016-03-10T19:54:00.252Z,80.38
2016-03-10T19:55:00.224Z,80.34
2016-03-10T19:56:00.211Z,80.82
2016-03-10T19:57:00.167Z,80.72
2016-03-10T19:58:00.138Z,80.44
2016-03-10T19:59:00.094Z,80.1
2016-03-10T20:00:00.065Z,80.86
2016-03-10T20:01:00.036Z,80.82
2016-03-10T20:02:00.008Z,80.48
2016-03-10T20:02:59.964Z,81.05
2016-03-10T20:03:59.935Z,81.05
2016-03-10T20:04:59.907Z,81.24
2016-03-10T20:05:59.878Z,80.63
2016-03-10T20:06:59.834Z,80.76
2016-03-10T20:07:59.810Z,80.95
2016-03-10T20:08:59.782Z,81.43
2016-03-10T20:09:59.737Z,81.81
2016-03-10T20:10:59.724Z,81.71
2016-03-10T20:11:59.680Z,81.43
2016-03-10T20:12:59.652Z,82.24
2016-03-10T20:13:59.622Z,82.18
2016-03-10T20:14:59.594Z,82.18
2016-03-10T20:15:59.550Z,82.18
2016-03-10T20:16:59.522Z,82.28
2016-03-10T20:17:59.493Z,82.05